Time,TemperatureF,DewpointF,PressureIn,WindDirection,WindDirectionDegrees,WindSpeedMPH,WindSpeedGustMPH,Humidity,HourlyPrecipIn,Conditions,Clouds,dailyrainin,SoftwareType,DateUTC
2013-05-28 00:02:00,46.1,43.0,29.72,WNW,292,0.0,0.0,89,0.00,,---,0.00,VWS V14.01,2013-05-28 06:02:00,
2013-05-28 00:07:00,46.1,43.0,29.72,WNW,292,0.4,0.4,89,0.00,,---,0.00,VWS V14.01,2013-05-28 06:07:00,
2013-05-28 00:12:00,46.1,42.8,29.72,WNW,292,0.0,0.0,88,0.00,,---,0.00,VWS V14.01,2013-05-28 06:12:00,
2013-05-28 00:17:00,45.9,42.5,29.72,NW,315,0.2,0.2,88,0.00,,---,0.00,VWS V14.01,2013-05-28 06:17:00,
2013-05-28 00:22:00,45.7,42.4,29.72,NW,315,0.0,0.0,88,0.00,,---,0.00,VWS V14.01,2013-05-28 06:22:00,
2013-05-28 00:27:00,45.7,42.4,29.72,NW,315,0.4,0.4,88,0.00,,---,0.00,VWS V14.01,2013-05-28 06:27:00,
2013-05-28 00:32:00,45.5,42.2,29.72,NW,315,0.0,0.0,88,0.00,,---,0.00,VWS V14.01,2013-05-28 06:32:00,
2013-05-28 00:37:00,45.4,42.1,29.73,NW,315,0.0,0.0,88,0.00,,---,0.00,VWS V14.01,2013-05-28 06:37:00,
2013-05-28 00:42:00,45.4,42.1,29.73,NW,315,0.0,0.0,88,0.00,,---,0.00,VWS V14.01,2013-05-28 06:42:00,
2013-05-28 00:47:00,45.2,41.6,29.72,NW,315,0.2,0.2,87,0.00,,---,0.00,VWS V14.01,2013-05-28 06:47:00,
2013-05-28 00:52:00,44.6,41.0,29.72,NW,315,0.0,0.0,87,0.00,,---,0.00,VWS V14.01,2013-05-28 06:52:00,
2013-05-28 00:57:00,44.6,41.0,29.72,NW,315,0.0,0.0,87,0.00,,---,0.00,VWS V14.01,2013-05-28 06:57:00,
2013-05-28 01:02:00,44.5,40.9,29.72,NW,315,0.0,0.0,87,0.00,,---,0.00,VWS V14.01,2013-05-28 07:02:00,
2013-05-28 01:07:00,44.3,40.7,29.72,NNW,338,1.1,1.1,87,0.00,,---,0.00,VWS V14.01,2013-05-28 07:07:00,
2013-05-28 01:12:00,44.3,40.7,29.72,NNW,338,0.0,0.0,87,0.00,,---,0.00,VWS V14.01,2013-05-28 07:12:00,
2013-05-28 01:17:00,44.1,40.5,29.72,NW,315,0.2,0.2,87,0.00,,---,0.00,VWS V14.01,2013-05-28 07:17:00,
2013-05-28 01:22:00,43.9,40.3,29.72,NW,315,0.7,0.7,87,0.00,,---,0.00,VWS V14.01,2013-05-28 07:22:00,
2013-05-28 01:27:00,43.7,40.1,29.72,NNW,338,0.9,0.9,87,0.00,,---,0.00,VWS V14.01,2013-05-28 07:27:00,
2013-05-28 01:32:00,43.7,40.1,29.72,NW,315,0.4,0.4,87,0.00,,---,0.00,VWS V14.01,2013-05-28 07:32:00,
2013-05-28 01:37:00,43.6,40.0,29.72,NW,315,1.6,1.6,87,0.00,,---,0.00,VWS V14.01,2013-05-28 07:37:00,
2013-05-28 01:42:00,43.6,40.0,29.72,NW,315,0.0,0.0,87,0.00,,---,0.00,VWS V14.01,2013-05-28 07:42:00,
2013-05-28 01:47:00,43.4,39.8,29.72,NNW,338,0.7,0.7,87,0.00,,---,0.00,VWS V14.01,2013-05-28 07:47:00,
2013-05-28 01:52:00,43.2,39.3,29.72,NW,315,0.4,0.4,86,0.00,,---,0.00,VWS V14.01,2013-05-28 07:52:00,
2013-05-28 01:57:00,43.2,39.3,29.72,NW,315,0.4,0.4,86,0.00,,---,0.00,VWS V14.01,2013-05-28 07:57:00,
2013-05-28 02:02:00,42.8,38.9,29.72,NW,315,0.4,0.4,86,0.00,,---,0.00,VWS V14.01,2013-05-28 08:02:00,
2013-05-28 02:07:00,42.8,38.9,29.72,NW,315,0.2,0.2,86,0.00,,---,0.00,VWS V14.01,2013-05-28 08:07:00,
2013-05-28 02:12:00,42.7,38.8,29.72,NW,315,0.2,0.2,86,0.00,,---,0.00,VWS V14.01,2013-05-28 08:12:00,
2013-05-28 02:17:00,42.5,38.6,29.72,NNW,338,0.2,0.2,86,0.00,,---,0.00,VWS V14.01,2013-05-28 08:17:00,
2013-05-28 02:22:00,42.3,38.7,29.72,NNW,338,0.4,0.4,87,0.00,,---,0.00,VWS V14.01,2013-05-28 08:22:00,
2013-05-28 02:27:00,42.1,38.5,29.72,NNW,338,0.0,0.0,87,0.00,,---,0.00,VWS V14.01,2013-05-28 08:27:00,
2013-05-28 02:32:00,42.1,38.5,29.72,NW,315,0.0,0.0,87,0.00,,---,0.00,VWS V14.01,2013-05-28 08:32:00,
2013-05-28 02:37:00,41.9,38.3,29.72,NW,315,0.0,0.0,87,0.00,,---,0.00,VWS V14.01,2013-05-28 08:37:00,
2013-05-28 02:42:00,41.8,38.2,29.72,NNW,338,0.2,0.2,87,0.00,,---,0.00,VWS V14.01,2013-05-28 08:42:00,
2013-05-28 02:47:00,41.8,38.2,29.72,NW,315,0.4,0.4,87,0.00,,---,0.00,VWS V14.01,2013-05-28 08:47:00,
2013-05-28 02:52:00,41.6,38.0,29.72,NW,315,0.7,0.7,87,0.00,,---,0.00,VWS V14.01,2013-05-28 08:52:00,
2013-05-28 02:58:00,41.4,37.8,29.72,NNW,338,0.4,0.4,87,0.00,,---,0.00,VWS V14.01,2013-05-28 08:58:00,
2013-05-28 03:03:00,41.4,37.8,29.72,NNW,338,0.0,0.0,87,0.00,,---,0.00,VWS V14.01,2013-05-28 09:03:00,
2013-05-28 03:08:00,41.4,37.8,29.72,NW,315,0.0,0.0,87,0.00,,---,0.00,VWS V14.01,2013-05-28 09:08:00,
2013-05-28 03:13:00,41.4,37.8,29.72,NW,315,0.0,0.0,87,0.00,,---,0.00,VWS V14.01,2013-05-28 09:13:00,
2013-05-28 03:18:00,41.2,37.6,29.72,NW,315,0.0,0.0,87,0.00,,---,0.00,VWS V14.01,2013-05-28 09:18:00,
2013-05-28 03:23:00,41.2,37.6,29.72,NW,315,0.7,0.7,87,0.00,,---,0.00,VWS V14.01,2013-05-28 09:23:00,
2013-05-28 03:28:00,41.0,37.4,29.72,NW,315,0.2,0.2,87,0.00,,---,0.00,VWS V14.01,2013-05-28 09:28:00,
2013-05-28 03:33:00,41.0,37.4,29.72,NW,315,0.7,0.7,87,0.00,,---,0.00,VWS V14.01,2013-05-28 09:33:00,
2013-05-28 03:38:00,41.0,37.4,29.72,NNW,338,0.4,0.4,87,0.00,,---,0.00,VWS V14.01,2013-05-28 09:38:00,
2013-05-28 03:43:00,41.2,37.9,29.72,NW,315,0.7,1.3,88,0.00,,---,0.00,VWS V14.01,2013-05-28 09:43:00,
2013-05-28 03:48:00,41.4,37.8,29.72,NW,315,0.7,1.3,87,0.00,,---,0.00,VWS V14.01,2013-05-28 09:48:00,
2013-05-28 03:53:00,41.6,38.0,29.72,NNW,338,0.7,0.7,87,0.00,,---,0.00,VWS V14.01,2013-05-28 09:53:00,
2013-05-28 03:58:00,41.9,38.3,29.72,NW,315,1.1,2.2,87,0.00,,---,0.00,VWS V14.01,2013-05-28 09:58:00,
2013-05-28 04:03:00,41.9,38.0,29.72,NNW,338,1.1,1.1,86,0.00,,---,0.00,VWS V14.01,2013-05-28 10:03:00,
2013-05-28 04:08:00,41.9,38.0,29.72,NW,315,0.2,0.2,86,0.00,,---,0.00,VWS V14.01,2013-05-28 10:08:00,
2013-05-28 04:13:00,41.4,37.2,29.72,NW,315,1.1,1.1,85,0.00,,---,0.00,VWS V14.01,2013-05-28 10:13:00,
2013-05-28 04:18:00,41.4,37.2,29.72,NNW,338,0.4,0.4,85,0.00,,---,0.00,VWS V14.01,2013-05-28 10:18:00,
2013-05-28 04:23:00,41.2,37.3,29.72,NNW,338,0.9,0.9,86,0.00,,---,0.00,VWS V14.01,2013-05-28 10:23:00,
2013-05-28 04:28:00,41.2,37.3,29.72,NNW,338,1.1,1.1,86,0.00,,---,0.00,VWS V14.01,2013-05-28 10:28:00,
2013-05-28 04:33:00,41.2,37.3,29.72,NNW,338,2.0,2.0,86,0.00,,---,0.00,VWS V14.01,2013-05-28 10:33:00,
2013-05-28 04:38:00,41.4,37.5,29.72,North,0,1.8,1.8,86,0.00,,---,0.00,VWS V14.01,2013-05-28 10:38:00,
2013-05-28 04:43:00,41.4,37.5,29.72,NNW,338,0.9,0.9,86,0.00,,---,0.00,VWS V14.01,2013-05-28 10:43:00,
2013-05-28 04:48:00,41.2,37.0,29.72,NW,315,0.9,0.9,85,0.00,,---,0.00,VWS V14.01,2013-05-28 10:48:00,
2013-05-28 04:53:00,41.4,36.9,29.72,NW,315,0.9,0.9,84,0.00,,---,0.00,VWS V14.01,2013-05-28 10:53:00,
2013-05-28 04:58:00,41.2,36.7,29.72,NW,315,0.4,0.4,84,0.00,,---,0.00,VWS V14.01,2013-05-28 10:58:00,
2013-05-28 05:03:00,41.2,36.7,29.72,ENE,68,0.4,0.4,84,0.00,,---,0.00,VWS V14.01,2013-05-28 11:03:00,
2013-05-28 05:08:00,41.4,36.6,29.72,NNW,338,0.4,0.4,83,0.00,,---,0.00,VWS V14.01,2013-05-28 11:08:00,
2013-05-28 05:13:00,41.6,36.8,29.72,NW,315,0.4,0.4,83,0.00,,---,0.00,VWS V14.01,2013-05-28 11:13:00,
2013-05-28 05:18:00,41.6,36.5,29.72,NNW,338,1.6,1.6,82,0.00,,---,0.00,VWS V14.01,2013-05-28 11:18:00,
2013-05-28 05:23:00,41.6,36.5,29.72,NW,315,0.9,0.9,82,0.00,,---,0.00,VWS V14.01,2013-05-28 11:23:00,
2013-05-28 05:28:00,41.4,36.6,29.72,NNW,338,0.4,0.4,83,0.00,,---,0.00,VWS V14.01,2013-05-28 11:28:00,
2013-05-28 05:33:00,41.6,36.8,29.72,NNW,338,1.8,1.8,83,0.00,,---,0.00,VWS V14.01,2013-05-28 11:33:00,
2013-05-28 05:38:00,42.1,37.0,29.72,NNW,338,1.1,1.1,82,0.00,,---,0.00,VWS V14.01,2013-05-28 11:38:00,
2013-05-28 05:43:00,41.9,37.1,29.72,NW,315,0.9,0.9,83,0.00,,---,0.00,VWS V14.01,2013-05-28 11:43:00,
2013-05-28 05:48:00,41.8,37.0,29.72,NW,315,0.7,0.7,83,0.00,,---,0.00,VWS V14.01,2013-05-28 11:48:00,
2013-05-28 05:53:00,41.8,37.0,29.72,NNW,338,4.0,4.0,83,0.00,,---,0.00,VWS V14.01,2013-05-28 11:53:00,
2013-05-28 05:58:00,42.7,37.3,29.72,NNW,338,3.4,3.4,81,0.00,,---,0.00,VWS V14.01,2013-05-28 11:58:00,
2013-05-28 06:03:00,43.2,37.5,29.72,NW,315,0.7,0.7,80,0.00,,---,0.00,VWS V14.01,2013-05-28 12:03:00,
2013-05-28 06:08:00,43.4,37.3,29.72,NNW,338,1.1,1.1,79,0.00,,---,0.00,VWS V14.01,2013-05-28 12:08:00,
2013-05-28 06:13:00,43.6,37.2,29.72,NW,315,0.4,0.4,78,0.00,,---,0.00,VWS V14.01,2013-05-28 12:13:00,
2013-05-28 06:18:00,44.3,37.9,29.72,NW,315,1.1,1.1,78,0.00,,---,0.00,VWS V14.01,2013-05-28 12:18:00,
2013-05-28 06:23:00,44.8,38.4,29.72,NW,315,1.1,1.1,78,0.00,,---,0.00,VWS V14.01,2013-05-28 12:23:00,
2013-05-28 06:28:00,45.2,38.8,29.72,NNW,338,0.7,0.7,78,0.00,,---,0.00,VWS V14.01,2013-05-28 12:28:00,
2013-05-28 06:33:00,45.7,39.6,29.72,NNW,338,0.4,0.4,79,0.00,,---,0.00,VWS V14.01,2013-05-28 12:33:00,
2013-05-28 06:38:00,46.3,40.2,29.72,NNW,338,0.4,0.4,79,0.00,,---,0.00,VWS V14.01,2013-05-28 12:38:00,
2013-05-28 06:43:00,47.0,40.8,29.72,NNW,338,1.1,1.1,79,0.00,,---,0.00,VWS V14.01,2013-05-28 12:43:00,
2013-05-28 06:48:00,47.5,40.7,29.72,NNW,338,1.1,1.1,77,0.00,,---,0.00,VWS V14.01,2013-05-28 12:48:00,
2013-05-28 06:53:00,48.6,42.1,29.72,WNW,292,0.4,0.4,78,0.00,,---,0.00,VWS V14.01,2013-05-28 12:53:00,
2013-05-28 06:58:00,49.7,41.8,29.72,NW,315,0.4,0.4,74,0.00,,---,0.00,VWS V14.01,2013-05-28 12:58:00,
2013-05-28 07:03:00,50.8,41.8,29.72,NW,315,1.3,1.3,71,0.00,,---,0.00,VWS V14.01,2013-05-28 13:03:00,
2013-05-28 07:08:00,51.5,41.7,29.71,WNW,292,1.1,1.1,69,0.00,,---,0.00,VWS V14.01,2013-05-28 13:08:00,
2013-05-28 07:13:00,52.4,42.5,29.71,WNW,292,0.4,0.4,69,0.00,,---,0.00,VWS V14.01,2013-05-28 13:13:00,
2013-05-28 07:18:00,53.3,42.6,29.71,North,0,0.4,0.4,67,0.00,,---,0.00,VWS V14.01,2013-05-28 13:18:00,
2013-05-28 07:24:00,54.0,42.1,29.71,NW,315,0.4,0.4,64,0.00,,---,0.00,VWS V14.01,2013-05-28 13:24:00,
2013-05-28 07:29:00,54.5,43.0,29.71,WNW,292,0.2,0.2,65,0.00,,---,0.00,VWS V14.01,2013-05-28 13:29:00,
2013-05-28 07:34:00,55.4,43.0,29.71,NW,315,0.4,0.4,63,0.02,,---,0.02,VWS V14.01,2013-05-28 13:34:00,
2013-05-28 07:39:00,56.0,43.2,29.71,NW,315,0.9,0.9,62,0.02,,---,0.02,VWS V14.01,2013-05-28 13:39:00,
2013-05-28 07:44:00,56.5,42.4,29.71,WNW,292,1.3,1.3,59,0.02,,---,0.02,VWS V14.01,2013-05-28 13:44:00,
2013-05-28 07:49:00,57.2,43.9,29.70,NW,315,0.4,0.7,61,0.02,,---,0.02,VWS V14.01,2013-05-28 13:49:00,
2013-05-28 07:54:00,58.0,44.2,29.70,NW,315,0.0,0.0,60,0.02,,---,0.02,VWS V14.01,2013-05-28 13:54:00,
2013-05-28 07:59:00,58.1,42.5,29.70,NW,315,0.4,0.4,56,0.02,,---,0.02,VWS V14.01,2013-05-28 13:59:00,
2013-05-28 08:04:00,58.9,42.8,29.70,NW,315,0.9,0.9,55,0.02,,---,0.02,VWS V14.01,2013-05-28 14:04:00,
2013-05-28 08:09:00,59.6,44.4,29.70,WNW,292,0.9,0.9,57,0.02,,---,0.02,VWS V14.01,2013-05-28 14:09:00,
2013-05-28 08:14:00,60.5,44.7,29.69,NW,315,1.6,1.6,56,0.02,,---,0.02,VWS V14.01,2013-05-28 14:14:00,
2013-05-28 08:19:00,61.2,43.5,29.69,NW,315,0.4,0.4,52,0.02,,---,0.02,VWS V14.01,2013-05-28 14:19:00,
2013-05-28 08:24:00,61.9,43.6,29.69,WNW,292,1.1,1.1,51,0.02,,---,0.02,VWS V14.01,2013-05-28 14:24:00,
2013-05-28 08:29:00,62.1,43.3,29.69,NW,315,1.1,1.1,50,0.02,,---,0.02,VWS V14.01,2013-05-28 14:29:00,
2013-05-28 08:34:00,63.0,43.6,29.69,NNW,338,0.7,0.7,49,0.00,,---,0.02,VWS V14.01,2013-05-28 14:34:00,
2013-05-28 08:39:00,64.1,46.1,29.69,NE,45,0.4,0.4,52,0.00,,---,0.02,VWS V14.01,2013-05-28 14:39:00,
2013-05-28 08:44:00,65.2,42.8,29.68,North,0,0.4,0.4,44,0.00,,---,0.02,VWS V14.01,2013-05-28 14:44:00,
2013-05-28 08:49:00,65.5,43.6,29.69,NE,45,2.5,2.5,45,0.00,,---,0.02,VWS V14.01,2013-05-28 14:49:00,
2013-05-28 08:54:00,65.9,43.4,29.69,NNW,338,0.2,0.2,44,0.00,,---,0.02,VWS V14.01,2013-05-28 14:54:00,
2013-05-28 08:59:00,66.1,43.6,29.68,NE,45,0.4,0.4,44,0.00,,---,0.02,VWS V14.01,2013-05-28 14:59:00,
2013-05-28 09:04:00,67.1,44.5,29.69,ENE,68,0.4,0.4,44,0.00,,---,0.02,VWS V14.01,2013-05-28 15:04:00,
2013-05-28 09:09:00,68.6,41.3,29.68,East,90,0.0,0.0,37,0.00,,---,0.02,VWS V14.01,2013-05-28 15:09:00,
2013-05-28 09:14:00,68.0,40.8,29.68,NNW,338,1.1,1.1,37,0.00,,---,0.02,VWS V14.01,2013-05-28 15:14:00,
2013-05-28 09:19:00,68.4,41.1,29.68,East,90,3.4,3.4,37,0.00,,---,0.02,VWS V14.01,2013-05-28 15:19:00,
2013-05-28 09:24:00,68.9,41.6,29.68,East,90,0.4,0.4,37,0.00,,---,0.02,VWS V14.01,2013-05-28 15:24:00,
2013-05-28 09:29:00,69.1,43.1,29.68,NE,45,0.4,0.4,39,0.00,,---,0.02,VWS V14.01,2013-05-28 15:29:00,
2013-05-28 09:34:00,69.8,44.4,29.68,ENE,68,1.1,1.1,40,0.00,,---,0.02,VWS V14.01,2013-05-28 15:34:00,
2013-05-28 09:39:00,70.2,41.3,29.68,NE,45,1.1,1.1,35,0.00,,---,0.02,VWS V14.01,2013-05-28 15:39:00,
2013-05-28 09:44:00,69.7,39.3,29.68,NE,45,0.9,0.9,33,0.00,,---,0.02,VWS V14.01,2013-05-28 15:44:00,
2013-05-28 09:49:00,68.2,41.0,29.68,East,90,3.4,3.4,37,0.00,,---,0.02,VWS V14.01,2013-05-28 15:49:00,
2013-05-28 09:54:00,67.5,40.3,29.68,East,90,2.0,2.0,37,0.00,,---,0.02,VWS V14.01,2013-05-28 15:54:00,
2013-05-28 09:59:00,68.0,43.5,29.68,ENE,68,4.3,4.3,41,0.00,,---,0.02,VWS V14.01,2013-05-28 15:59:00,
2013-05-28 10:04:00,67.7,41.9,29.68,East,90,0.7,0.7,39,0.00,,---,0.02,VWS V14.01,2013-05-28 16:04:00,
2013-05-28 10:09:00,68.8,42.9,29.68,East,90,3.4,3.4,39,0.00,,---,0.02,VWS V14.01,2013-05-28 16:09:00,
2013-05-28 10:14:00,69.1,43.8,29.67,NNE,22,2.2,2.2,40,0.00,,---,0.02,VWS V14.01,2013-05-28 16:14:00,
2013-05-28 10:19:00,69.8,43.8,29.67,ENE,68,3.8,3.8,39,0.00,,---,0.02,VWS V14.01,2013-05-28 16:19:00,
2013-05-28 10:24:00,70.0,43.2,29.67,ENE,68,6.0,6.0,38,0.00,,---,0.02,VWS V14.01,2013-05-28 16:24:00,
2013-05-28 10:29:00,70.2,43.4,29.67,ENE,68,9.2,9.2,38,0.00,,---,0.02,VWS V14.01,2013-05-28 16:29:00,
2013-05-28 10:34:00,70.2,44.1,29.67,East,90,2.5,2.5,39,0.00,,---,0.02,VWS V14.01,2013-05-28 16:34:00,
2013-05-28 10:39:00,70.9,45.4,29.67,NE,45,2.2,2.2,40,0.00,,---,0.02,VWS V14.01,2013-05-28 16:39:00,
2013-05-28 10:44:00,71.3,47.0,29.67,ENE,68,3.8,3.8,42,0.00,,---,0.02,VWS V14.01,2013-05-28 16:44:00,
2013-05-28 10:49:00,69.8,43.1,29.67,ENE,68,4.7,4.7,38,0.00,,---,0.02,VWS V14.01,2013-05-28 16:49:00,
2013-05-28 10:54:00,68.9,43.6,29.67,ENE,68,3.1,3.1,40,0.00,,---,0.02,VWS V14.01,2013-05-28 16:54:00,
2013-05-28 10:59:00,68.9,43.0,29.67,East,90,2.7,2.7,39,0.00,,---,0.02,VWS V14.01,2013-05-28 16:59:00,
2013-05-28 11:04:00,69.5,46.7,29.67,ENE,68,6.0,6.0,44,0.00,,---,0.02,VWS V14.01,2013-05-28 17:04:00,
2013-05-28 11:09:00,70.2,45.4,29.67,ENE,68,5.4,5.4,41,0.00,,---,0.02,VWS V14.01,2013-05-28 17:09:00,
2013-05-28 11:14:00,70.4,45.6,29.67,NNE,22,6.5,6.5,41,0.00,,---,0.02,VWS V14.01,2013-05-28 17:14:00,
2013-05-28 11:19:00,70.4,45.6,29.67,ENE,68,7.4,7.4,41,0.00,,---,0.02,VWS V14.01,2013-05-28 17:19:00,
2013-05-28 11:24:00,70.6,45.8,29.67,East,90,3.8,3.8,41,0.00,,---,0.02,VWS V14.01,2013-05-28 17:24:00,
2013-05-28 11:29:00,70.4,46.2,29.67,East,90,4.0,4.0,42,0.00,,---,0.02,VWS V14.01,2013-05-28 17:29:00,
2013-05-28 11:34:00,70.4,46.2,29.67,ENE,68,1.6,1.6,42,0.00,,---,0.02,VWS V14.01,2013-05-28 17:34:00,
2013-05-28 11:39:00,70.7,45.2,29.67,East,90,5.4,5.4,40,0.00,,---,0.02,VWS V14.01,2013-05-28 17:39:00,
2013-05-28 11:44:00,70.2,44.8,29.67,East,90,6.0,6.0,40,0.00,,---,0.02,VWS V14.01,2013-05-28 17:44:00,
2013-05-28 11:49:00,69.8,45.7,29.67,ENE,68,2.5,2.5,42,0.00,,---,0.02,VWS V14.01,2013-05-28 17:49:00,
2013-05-28 11:54:00,70.2,45.4,29.67,NNE,22,3.1,3.1,41,0.00,,---,0.02,VWS V14.01,2013-05-28 17:54:00,
2013-05-28 11:59:00,70.0,44.6,29.67,NNE,22,4.0,4.0,40,0.00,,---,0.02,VWS V14.01,2013-05-28 17:59:00,
2013-05-28 12:05:00,70.2,46.1,29.67,ENE,68,1.8,1.8,42,0.00,,---,0.02,VWS V14.01,2013-05-28 18:05:00,
2013-05-28 12:10:00,70.6,46.4,29.67,NE,45,6.3,6.3,42,0.00,,---,0.02,VWS V14.01,2013-05-28 18:10:00,
2013-05-28 12:15:00,70.6,45.1,29.67,ENE,68,6.3,8.9,40,0.00,,---,0.02,VWS V14.01,2013-05-28 18:15:00,
2013-05-28 12:20:00,70.0,46.5,29.67,ENE,68,4.0,4.0,43,0.00,,---,0.02,VWS V14.01,2013-05-28 18:20:00,
2013-05-28 12:25:00,69.8,46.3,29.67,NE,45,5.4,5.4,43,0.00,,---,0.02,VWS V14.01,2013-05-28 18:25:00,
2013-05-28 12:30:00,69.7,45.6,29.67,East,90,2.0,2.0,42,0.00,,---,0.02,VWS V14.01,2013-05-28 18:30:00,
2013-05-28 12:35:00,69.8,45.7,29.67,ENE,68,8.7,8.7,42,0.00,,---,0.02,VWS V14.01,2013-05-28 18:35:00,
2013-05-28 12:40:00,69.7,45.6,29.67,East,90,3.8,3.8,42,0.00,,---,0.02,VWS V14.01,2013-05-28 18:40:00,
2013-05-28 12:45:00,69.8,45.7,29.67,NE,45,4.9,4.9,42,0.00,,---,0.02,VWS V14.01,2013-05-28 18:45:00,
2013-05-28 12:50:00,70.2,44.8,29.67,ENE,68,6.7,6.7,40,0.00,,---,0.02,VWS V14.01,2013-05-28 18:50:00,
2013-05-28 12:55:00,70.2,44.1,29.66,North,0,4.7,4.7,39,0.00,,---,0.02,VWS V14.01,2013-05-28 18:55:00,
2013-05-28 13:00:00,70.4,45.0,29.66,ENE,68,4.9,4.9,40,0.00,,---,0.02,VWS V14.01,2013-05-28 19:00:00,
2013-05-28 13:05:00,70.6,45.1,29.67,North,0,5.4,5.4,40,0.00,,---,0.02,VWS V14.01,2013-05-28 19:05:00,
2013-05-28 13:10:00,70.4,44.3,29.67,ENE,68,2.5,2.5,39,0.00,,---,0.02,VWS V14.01,2013-05-28 19:10:00,
2013-05-28 13:15:00,69.8,45.1,29.67,East,90,3.6,3.6,41,0.00,,---,0.02,VWS V14.01,2013-05-28 19:15:00,
2013-05-28 13:20:00,69.7,44.3,29.66,ENE,68,3.8,3.8,40,0.00,,---,0.02,VWS V14.01,2013-05-28 19:20:00,
2013-05-28 13:25:00,69.8,40.9,29.66,NNE,22,6.3,6.3,35,0.00,,---,0.02,VWS V14.01,2013-05-28 19:25:00,
2013-05-28 13:30:00,69.5,42.8,29.66,East,90,6.7,6.7,38,0.00,,---,0.02,VWS V14.01,2013-05-28 19:30:00,
2013-05-28 13:35:00,68.8,41.5,29.66,ENE,68,4.0,4.0,37,0.00,,---,0.02,VWS V14.01,2013-05-28 19:35:00,
2013-05-28 13:40:00,68.8,43.5,29.66,ENE,68,4.0,4.0,40,0.00,,---,0.02,VWS V14.01,2013-05-28 19:40:00,
2013-05-28 13:45:00,68.8,43.5,29.66,NE,45,2.5,2.5,40,0.00,,---,0.02,VWS V14.01,2013-05-28 19:45:00,
2013-05-28 13:50:00,69.3,44.0,29.66,ENE,68,3.4,3.4,40,0.00,,---,0.02,VWS V14.01,2013-05-28 19:50:00,
2013-05-28 13:55:00,69.7,43.7,29.66,NE,45,1.8,1.8,39,0.00,,---,0.02,VWS V14.01,2013-05-28 19:55:00,
2013-05-28 14:00:00,69.8,43.1,29.66,ENE,68,6.0,6.0,38,0.00,,---,0.02,VWS V14.01,2013-05-28 20:00:00,
2013-05-28 14:05:00,69.8,40.9,29.66,East,90,6.9,6.9,35,0.00,,---,0.02,VWS V14.01,2013-05-28 20:05:00,
2013-05-28 14:10:00,69.1,41.0,29.66,NE,45,2.5,2.5,36,0.00,,---,0.02,VWS V14.01,2013-05-28 20:10:00,
2013-05-28 14:15:00,69.1,42.5,29.66,NNE,22,4.9,4.9,38,0.00,,---,0.02,VWS V14.01,2013-05-28 20:15:00,
2013-05-28 14:20:00,68.9,43.0,29.66,NE,45,2.2,2.2,39,0.00,,---,0.02,VWS V14.01,2013-05-28 20:20:00,
2013-05-28 14:25:00,68.8,42.2,29.66,East,90,5.4,5.4,38,0.00,,---,0.02,VWS V14.01,2013-05-28 20:25:00,
2013-05-28 14:30:00,68.6,41.3,29.66,East,90,2.2,2.2,37,0.00,,---,0.02,VWS V14.01,2013-05-28 20:30:00,
2013-05-28 14:35:00,68.8,42.9,29.67,East,90,3.4,3.4,39,0.00,,---,0.02,VWS V14.01,2013-05-28 20:35:00,
2013-05-28 14:40:00,68.8,41.5,29.67,ENE,68,4.5,4.5,37,0.00,,---,0.02,VWS V14.01,2013-05-28 20:40:00,
2013-05-28 14:45:00,68.0,42.1,29.66,NE,45,2.5,2.5,39,0.00,,---,0.02,VWS V14.01,2013-05-28 20:45:00,
2013-05-28 14:50:00,67.9,42.1,29.66,NNE,22,3.6,3.6,39,0.00,,---,0.02,VWS V14.01,2013-05-28 20:50:00,
2013-05-28 14:55:00,68.0,42.1,29.66,East,90,5.6,5.6,39,0.00,,---,0.02,VWS V14.01,2013-05-28 20:55:00,
2013-05-28 15:00:00,68.0,42.1,29.66,East,90,3.4,3.4,39,0.00,,---,0.02,VWS V14.01,2013-05-28 21:00:00,
2013-05-28 15:05:00,68.0,44.1,29.66,ENE,68,4.3,4.3,42,0.00,,---,0.02,VWS V14.01,2013-05-28 21:05:00,
2013-05-28 15:10:00,68.2,44.9,29.66,East,90,1.1,1.1,43,0.00,,---,0.02,VWS V14.01,2013-05-28 21:10:00,
2013-05-28 15:15:00,68.0,45.3,29.67,NE,45,2.5,2.5,44,0.00,,---,0.02,VWS V14.01,2013-05-28 21:15:00,
2013-05-28 15:20:00,67.7,43.2,29.67,NE,45,1.1,1.1,41,0.00,,---,0.02,VWS V14.01,2013-05-28 21:20:00,
2013-05-28 15:25:00,67.3,42.8,29.67,ENE,68,2.5,2.5,41,0.00,,---,0.02,VWS V14.01,2013-05-28 21:25:00,
2013-05-28 15:30:00,66.6,43.4,29.67,East,90,2.5,2.5,43,0.00,,---,0.02,VWS V14.01,2013-05-28 21:30:00,
2013-05-28 15:35:00,65.9,45.7,29.66,NNW,338,0.0,0.0,48,0.00,,---,0.02,VWS V14.01,2013-05-28 21:35:00,
2013-05-28 15:41:00,65.7,48.6,29.66,NW,315,1.8,1.8,54,0.00,,---,0.02,VWS V14.01,2013-05-28 21:41:00,
2013-05-28 15:46:00,65.7,48.1,29.66,North,0,1.1,1.1,53,0.00,,---,0.02,VWS V14.01,2013-05-28 21:46:00,
2013-05-28 15:51:00,65.9,44.6,29.65,East,90,1.8,1.8,46,0.00,,---,0.02,VWS V14.01,2013-05-28 21:51:00,
2013-05-28 15:56:00,66.2,46.5,29.65,NE,45,1.3,1.3,49,0.00,,---,0.02,VWS V14.01,2013-05-28 21:56:00,
2013-05-28 16:01:00,66.6,46.9,29.65,East,90,3.4,3.4,49,0.00,,---,0.02,VWS V14.01,2013-05-28 22:01:00,
2013-05-28 16:06:00,66.4,46.1,29.65,East,90,1.6,4.0,48,0.00,,---,0.02,VWS V14.01,2013-05-28 22:06:00,
2013-05-28 16:11:00,66.6,47.9,29.65,NNW,338,4.5,4.5,51,0.00,,---,0.02,VWS V14.01,2013-05-28 22:11:00,
2013-05-28 16:16:00,67.3,46.4,29.65,ENE,68,5.1,5.1,47,0.00,,---,0.02,VWS V14.01,2013-05-28 22:16:00,
2013-05-28 16:21:00,68.0,47.6,29.65,NE,45,1.8,2.5,48,0.00,,---,0.02,VWS V14.01,2013-05-28 22:21:00,
2013-05-28 16:26:00,68.4,48.5,29.65,East,90,4.7,4.7,49,0.00,,---,0.02,VWS V14.01,2013-05-28 22:26:00,
2013-05-28 16:31:00,67.7,48.4,29.65,ENE,68,5.6,5.6,50,0.00,,---,0.02,VWS V14.01,2013-05-28 22:31:00,
2013-05-28 16:36:00,67.7,48.4,29.64,NE,45,6.3,6.3,50,0.00,,---,0.02,VWS V14.01,2013-05-28 22:36:00,
2013-05-28 16:41:00,67.7,48.4,29.64,East,90,6.3,6.3,50,0.00,,---,0.02,VWS V14.01,2013-05-28 22:41:00,
2013-05-28 16:46:00,67.3,50.1,29.64,ENE,68,4.0,4.0,54,0.00,,---,0.02,VWS V14.01,2013-05-28 22:46:00,
2013-05-28 16:51:00,67.7,48.9,29.64,East,90,3.8,3.8,51,0.00,,---,0.02,VWS V14.01,2013-05-28 22:51:00,
2013-05-28 16:56:00,68.0,47.6,29.64,NE,45,2.9,2.9,48,0.00,,---,0.02,VWS V14.01,2013-05-28 22:56:00,
2013-05-28 17:01:00,68.0,47.6,29.64,NE,45,3.8,3.8,48,0.00,,---,0.02,VWS V14.01,2013-05-28 23:01:00,
2013-05-28 17:06:00,68.0,47.0,29.64,East,90,2.2,2.2,47,0.00,,---,0.02,VWS V14.01,2013-05-28 23:06:00,
2013-05-28 17:11:00,68.0,45.9,29.64,NE,45,1.8,1.8,45,0.00,,---,0.02,VWS V14.01,2013-05-28 23:11:00,
2013-05-28 17:16:00,67.7,47.9,29.64,NE,45,3.6,3.6,49,0.00,,---,0.02,VWS V14.01,2013-05-28 23:16:00,
2013-05-28 17:21:00,67.7,47.3,29.64,ENE,68,2.7,2.7,48,0.00,,---,0.02,VWS V14.01,2013-05-28 23:21:00,
2013-05-28 17:26:00,67.3,46.4,29.64,North,0,2.0,2.0,47,0.00,,---,0.02,VWS V14.01,2013-05-28 23:26:00,
2013-05-28 17:31:00,67.0,47.2,29.64,East,90,0.7,0.7,49,0.00,,---,0.02,VWS V14.01,2013-05-28 23:31:00,
2013-05-28 17:36:00,66.6,47.4,29.63,NNE,22,1.8,1.8,50,0.00,,---,0.02,VWS V14.01,2013-05-28 23:36:00,
2013-05-28 17:41:00,65.9,47.3,29.64,NE,45,2.2,2.2,51,0.00,,---,0.02,VWS V14.01,2013-05-28 23:41:00,
2013-05-28 17:46:00,65.3,47.2,29.63,NE,45,2.9,2.9,52,0.00,,---,0.02,VWS V14.01,2013-05-28 23:46:00,
2013-05-28 17:51:00,64.8,47.3,29.63,East,90,4.3,4.3,53,0.00,,---,0.02,VWS V14.01,2013-05-28 23:51:00,
2013-05-28 17:56:00,64.4,47.4,29.63,ENE,68,4.9,4.9,54,0.00,,---,0.02,VWS V14.01,2013-05-28 23:56:00,
2013-05-28 18:01:00,64.1,49.0,29.62,East,90,4.0,4.0,58,0.02,,---,0.04,VWS V14.01,2013-05-29 00:01:00,
2013-05-28 18:06:00,63.0,48.9,29.63,NE,45,6.3,6.3,60,0.02,,---,0.04,VWS V14.01,2013-05-29 00:06:00,
2013-05-28 18:11:00,62.6,49.0,29.62,NE,45,4.0,4.0,61,0.02,,---,0.04,VWS V14.01,2013-05-29 00:11:00,
2013-05-28 18:16:00,62.5,49.3,29.62,NNE,22,4.7,4.7,62,0.02,,---,0.04,VWS V14.01,2013-05-29 00:16:00,
2013-05-28 18:21:00,62.3,49.1,29.62,ENE,68,5.4,5.4,62,0.02,,---,0.04,VWS V14.01,2013-05-29 00:21:00,
2013-05-28 18:26:00,63.0,49.4,29.61,East,90,7.4,7.4,61,0.02,,---,0.04,VWS V14.01,2013-05-29 00:26:00,
2013-05-28 18:31:00,63.2,49.1,29.61,East,90,7.2,7.2,60,0.02,,---,0.04,VWS V14.01,2013-05-29 00:31:00,
2013-05-28 18:36:00,63.4,49.3,29.62,East,90,7.4,7.4,60,0.02,,---,0.04,VWS V14.01,2013-05-29 00:36:00,
2013-05-28 18:41:00,63.5,49.8,29.63,NW,315,0.9,0.9,61,0.02,,---,0.04,VWS V14.01,2013-05-29 00:41:00,
2013-05-28 18:46:00,63.2,50.8,29.63,NW,315,3.4,3.4,64,0.02,,---,0.04,VWS V14.01,2013-05-29 00:46:00,
2013-05-28 18:51:00,62.1,51.0,29.64,WNW,292,0.7,0.7,67,0.02,,---,0.04,VWS V14.01,2013-05-29 00:51:00,
2013-05-28 18:56:00,60.8,50.6,29.64,NNW,338,1.1,1.1,69,0.02,,---,0.04,VWS V14.01,2013-05-29 00:56:00,
2013-05-28 19:01:00,59.4,50.8,29.64,NW,315,1.1,1.1,73,0.07,,---,0.11,VWS V14.01,2013-05-29 01:01:00,
2013-05-28 19:06:00,57.8,51.7,29.65,NW,315,5.4,5.4,80,0.11,,---,0.15,VWS V14.01,2013-05-29 01:06:00,
2013-05-28 19:11:00,56.5,50.8,29.65,WNW,292,0.7,0.7,81,0.20,,---,0.24,VWS V14.01,2013-05-29 01:11:00,
2013-05-28 19:16:00,56.0,50.6,29.65,WNW,292,1.1,1.1,82,0.20,,---,0.24,VWS V14.01,2013-05-29 01:16:00,
2013-05-28 19:21:00,55.8,50.4,29.64,NNW,338,0.4,0.4,82,0.22,,---,0.26,VWS V14.01,2013-05-29 01:21:00,
2013-05-28 19:26:00,55.6,50.8,29.63,North,0,1.1,1.1,84,0.22,,---,0.26,VWS V14.01,2013-05-29 01:26:00,
2013-05-28 19:31:00,55.1,51.0,29.62,ENE,68,0.4,0.4,86,0.22,,---,0.26,VWS V14.01,2013-05-29 01:31:00,
2013-05-28 19:37:00,55.1,51.0,29.62,NW,315,1.6,1.6,86,0.22,,---,0.26,VWS V14.01,2013-05-29 01:37:00,
2013-05-28 19:42:00,55.1,51.0,29.63,WNW,292,1.1,1.1,86,0.22,,---,0.26,VWS V14.01,2013-05-29 01:42:00,
2013-05-28 19:47:00,55.1,51.0,29.64,WNW,292,0.4,0.4,86,0.22,,---,0.26,VWS V14.01,2013-05-29 01:47:00,
2013-05-28 19:52:00,54.9,50.8,29.63,NW,315,2.0,2.0,86,0.22,,---,0.26,VWS V14.01,2013-05-29 01:52:00,
2013-05-28 19:57:00,54.7,50.6,29.63,East,90,0.2,0.4,86,0.22,,---,0.26,VWS V14.01,2013-05-29 01:57:00,
2013-05-28 20:02:00,54.5,50.4,29.64,NNW,338,0.4,0.4,86,0.15,,---,0.26,VWS V14.01,2013-05-29 02:02:00,
2013-05-28 20:07:00,54.4,50.3,29.63,North,0,0.2,0.2,86,0.09,,---,0.26,VWS V14.01,2013-05-29 02:07:00,
2013-05-28 20:12:00,54.4,50.3,29.63,North,0,0.0,0.0,86,0.02,,---,0.26,VWS V14.01,2013-05-29 02:12:00,
2013-05-28 20:17:00,54.4,50.3,29.62,NNW,338,0.0,0.0,86,0.02,,---,0.26,VWS V14.01,2013-05-29 02:17:00,
2013-05-28 20:22:00,54.0,50.2,29.62,ENE,68,1.1,1.1,87,0.00,,---,0.26,VWS V14.01,2013-05-29 02:22:00,
2013-05-28 20:27:00,53.6,49.8,29.62,ENE,68,0.0,0.0,87,0.00,,---,0.26,VWS V14.01,2013-05-29 02:27:00,
2013-05-28 20:32:00,53.6,49.8,29.62,North,0,0.9,0.9,87,0.00,,---,0.26,VWS V14.01,2013-05-29 02:32:00,
2013-05-28 20:37:00,53.3,49.5,29.63,North,0,0.2,0.2,87,0.00,,---,0.26,VWS V14.01,2013-05-29 02:37:00,
2013-05-28 20:42:00,53.1,49.3,29.63,North,0,0.2,0.2,87,0.00,,---,0.26,VWS V14.01,2013-05-29 02:42:00,
2013-05-28 20:47:00,52.9,49.5,29.64,NNW,338,0.4,0.4,88,0.00,,---,0.26,VWS V14.01,2013-05-29 02:47:00,
2013-05-28 20:52:00,52.6,49.2,29.63,NNW,338,0.4,0.4,88,0.00,,---,0.26,VWS V14.01,2013-05-29 02:52:00,
2013-05-28 20:57:00,52.6,49.2,29.64,NNW,338,0.9,0.9,88,0.00,,---,0.26,VWS V14.01,2013-05-29 02:57:00,
2013-05-28 21:02:00,52.4,49.3,29.64,NE,45,1.1,1.1,89,0.00,,---,0.26,VWS V14.01,2013-05-29 03:02:00,
2013-05-28 21:07:00,52.0,48.9,29.65,ENE,68,0.2,0.2,89,0.00,,---,0.26,VWS V14.01,2013-05-29 03:07:00,
2013-05-28 21:12:00,51.8,48.7,29.65,ENE,68,0.0,0.0,89,0.00,,---,0.26,VWS V14.01,2013-05-29 03:12:00,
2013-05-28 21:17:00,51.7,48.6,29.66,WNW,292,0.4,0.4,89,0.00,,---,0.26,VWS V14.01,2013-05-29 03:17:00,
2013-05-28 21:22:00,51.7,48.6,29.66,NNW,338,0.7,0.7,89,0.00,,---,0.26,VWS V14.01,2013-05-29 03:22:00,
2013-05-28 21:27:00,51.8,49.0,29.66,WNW,292,1.1,1.1,90,0.00,,---,0.26,VWS V14.01,2013-05-29 03:27:00,
2013-05-28 21:32:00,51.7,48.6,29.67,NW,315,0.4,0.4,89,0.00,,---,0.26,VWS V14.01,2013-05-29 03:32:00,
2013-05-28 21:37:00,51.5,48.4,29.67,NW,315,0.4,0.4,89,0.00,,---,0.26,VWS V14.01,2013-05-29 03:37:00,
2013-05-28 21:42:00,51.5,48.7,29.67,WNW,292,0.7,0.7,90,0.00,,---,0.26,VWS V14.01,2013-05-29 03:42:00,
2013-05-28 21:47:00,51.5,48.4,29.67,WNW,292,0.0,0.0,89,0.00,,---,0.26,VWS V14.01,2013-05-29 03:47:00,
2013-05-28 21:52:00,51.5,48.4,29.67,WNW,292,0.0,0.0,89,0.00,,---,0.26,VWS V14.01,2013-05-29 03:52:00,
2013-05-28 21:57:00,51.5,48.4,29.68,WNW,292,0.0,0.0,89,0.00,,---,0.26,VWS V14.01,2013-05-29 03:57:00,
2013-05-28 22:01:00,51.5,48.7,29.68,WNW,292,0.4,0.4,90,0.00,,---,0.26,VWS V14.01,2013-05-29 04:01:00,
2013-05-28 22:06:00,51.5,48.7,29.68,WNW,292,0.0,0.0,90,0.00,,---,0.26,VWS V14.01,2013-05-29 04:06:00,
2013-05-28 22:11:00,51.7,48.9,29.69,WNW,292,0.0,0.0,90,0.00,,---,0.26,VWS V14.01,2013-05-29 04:11:00,
2013-05-28 22:16:00,51.7,48.9,29.68,WNW,292,0.2,0.4,90,0.00,,---,0.26,VWS V14.01,2013-05-29 04:16:00,
2013-05-28 22:21:00,51.7,48.9,29.68,WNW,292,0.4,0.4,90,0.00,,---,0.26,VWS V14.01,2013-05-29 04:21:00,
2013-05-28 22:26:00,51.7,48.9,29.67,NW,315,0.2,0.2,90,0.00,,---,0.26,VWS V14.01,2013-05-29 04:26:00,
2013-05-28 22:31:00,51.7,48.9,29.67,NW,315,0.2,0.2,90,0.00,,---,0.26,VWS V14.01,2013-05-29 04:31:00,
2013-05-28 22:36:00,51.7,48.9,29.67,NNW,338,1.1,1.1,90,0.00,,---,0.26,VWS V14.01,2013-05-29 04:36:00,
2013-05-28 22:41:00,51.7,48.9,29.67,NNW,338,0.0,0.0,90,0.00,,---,0.26,VWS V14.01,2013-05-29 04:41:00,
2013-05-28 22:46:00,51.7,48.9,29.67,NNW,338,0.0,0.0,90,0.00,,---,0.26,VWS V14.01,2013-05-29 04:46:00,
2013-05-28 22:51:00,51.7,48.9,29.66,NNW,338,0.4,0.4,90,0.00,,---,0.26,VWS V14.01,2013-05-29 04:51:00,
2013-05-28 22:56:00,51.7,48.9,29.66,NNW,338,0.2,0.2,90,0.00,,---,0.26,VWS V14.01,2013-05-29 04:56:00,
2013-05-28 23:01:00,51.5,48.7,29.66,NW,315,0.4,0.4,90,0.00,,---,0.26,VWS V14.01,2013-05-29 05:01:00,
2013-05-28 23:06:00,51.5,48.7,29.66,NNW,338,0.9,0.9,90,0.00,,---,0.26,VWS V14.01,2013-05-29 05:06:00,
2013-05-28 23:11:00,51.5,49.0,29.66,NNW,338,0.0,0.0,91,0.00,,---,0.26,VWS V14.01,2013-05-29 05:11:00,
2013-05-28 23:16:00,51.3,48.8,29.66,NNW,338,0.4,0.4,91,0.00,,---,0.26,VWS V14.01,2013-05-29 05:16:00,
2013-05-28 23:21:00,51.1,48.6,29.66,NW,315,1.1,1.1,91,0.00,,---,0.26,VWS V14.01,2013-05-29 05:21:00,
2013-05-28 23:26:00,51.1,48.6,29.67,NW,315,0.9,0.9,91,0.00,,---,0.26,VWS V14.01,2013-05-29 05:26:00,
2013-05-28 23:31:00,50.8,48.3,29.67,NW,315,1.1,1.1,91,0.00,,---,0.26,VWS V14.01,2013-05-29 05:31:00,
2013-05-28 23:36:00,50.8,48.3,29.67,NW,315,0.9,0.9,91,0.00,,---,0.26,VWS V14.01,2013-05-29 05:36:00,
2013-05-28 23:41:00,50.6,48.1,29.67,NNW,338,1.1,1.1,91,0.00,,---,0.26,VWS V14.01,2013-05-29 05:41:00,
2013-05-28 23:46:00,50.4,47.9,29.67,East,90,1.1,1.1,91,0.00,,---,0.26,VWS V14.01,2013-05-29 05:46:00,
2013-05-28 23:51:00,50.4,47.9,29.67,East,90,0.0,0.0,91,0.00,,---,0.26,VWS V14.01,2013-05-29 05:51:00,
2013-05-28 23:56:00,50.2,47.7,29.67,East,90,0.0,0.0,91,0.00,,---,0.26,VWS V14.01,2013-05-29 05:56:00,